createdAt,value
2019-04-16T00:01:22.439Z,51.10
2019-04-16T00:02:59.351Z,50.90
2019-04-16T00:04:43.531Z,50.90
2019-04-16T00:06:28.359Z,50.80
2019-04-16T00:08:27.147Z,50.80
2019-04-16T00:10:10.221Z,51.10
2019-04-16T00:11:51.120Z,51.00
2019-04-16T00:13:30.556Z,51.10
2019-04-16T00:15:08.329Z,51.20
2019-04-16T00:16:45.246Z,50.90
2019-04-16T00:18:21.744Z,51.20
2019-04-16T00:19:58.117Z,50.80
2019-04-16T00:21:51.173Z,50.90
2019-04-16T00:23:29.902Z,50.90
2019-04-16T00:25:07.447Z,50.80
2019-04-16T00:26:43.838Z,50.50
2019-04-16T00:28:20.025Z,50.10
2019-04-16T00:29:56.541Z,50.10
2019-04-16T00:31:34.283Z,50.20
2019-04-16T00:33:11.573Z,50.10
2019-04-16T00:34:48.986Z,50.30
2019-04-16T00:36:25.185Z,50.60
2019-04-16T00:38:01.396Z,50.40
2019-04-16T00:39:37.581Z,50.50
2019-04-16T00:41:13.865Z,50.20
2019-04-16T00:42:50.133Z,50.40
2019-04-16T00:44:26.575Z,50.20
2019-04-16T00:46:02.892Z,49.80
2019-04-16T00:47:39.227Z,49.80
2019-04-16T00:49:15.726Z,49.70
2019-04-16T00:50:51.910Z,49.70
2019-04-16T00:52:28.222Z,49.80
2019-04-16T00:54:09.710Z,49.40
2019-04-16T00:55:45.048Z,49.50
2019-04-16T00:57:21.715Z,49.50
2019-04-16T00:58:57.658Z,49.30
2019-04-16T01:00:33.957Z,49.00
2019-04-16T01:02:10.360Z,49.20
2019-04-16T01:03:46.515Z,49.30
2019-04-16T01:05:22.920Z,49.10
2019-04-16T01:06:59.130Z,48.90
2019-04-16T01:08:35.323Z,48.80
2019-04-16T01:10:11.772Z,48.70
2019-04-16T01:11:49.026Z,48.90
2019-04-16T01:13:25.961Z,48.80
2019-04-16T01:15:02.145Z,48.90
2019-04-16T01:16:38.586Z,49.40
2019-04-16T01:18:14.837Z,49.40
2019-04-16T01:19:52.202Z,49.10
2019-04-16T01:21:28.548Z,49.20
2019-04-16T01:23:04.921Z,49.60
2019-04-16T01:24:41.079Z,49.60
2019-04-16T01:26:17.551Z,49.60
2019-04-16T01:27:59.826Z,50.00
2019-04-16T01:29:33.871Z,50.10
2019-04-16T01:31:15.217Z,50.10
2019-04-16T01:32:58.862Z,49.90
2019-04-16T01:34:47.146Z,50.00
2019-04-16T01:36:37.235Z,49.90
2019-04-16T01:38:21.993Z,50.20
2019-04-16T01:39:59.973Z,50.20
2019-04-16T01:41:36.230Z,50.10
2019-04-16T01:43:12.568Z,50.10
2019-04-16T01:44:48.837Z,50.60
2019-04-16T01:46:37.419Z,50.50
2019-04-16T01:48:13.790Z,50.50
2019-04-16T01:49:50.150Z,50.70
2019-04-16T01:51:26.573Z,50.20
2019-04-16T01:53:02.908Z,50.30
2019-04-16T01:54:39.206Z,50.40
2019-04-16T01:56:15.569Z,50.40
2019-04-16T01:57:51.874Z,50.20
2019-04-16T01:59:30.730Z,50.10
2019-04-16T02:01:11.387Z,50.30
2019-04-16T02:02:47.739Z,50.20
2019-04-16T02:04:24.105Z,50.10
2019-04-16T02:06:00.529Z,50.10
2019-04-16T02:07:37.024Z,50.10
2019-04-16T02:09:22.539Z,50.10
2019-04-16T02:10:52.650Z,50.40
2019-04-16T02:12:29.078Z,50.30
2019-04-16T02:14:06.191Z,50.40
2019-04-16T02:15:43.604Z,50.50
2019-04-16T02:17:19.943Z,50.80
2019-04-16T02:19:00.823Z,50.40
2019-04-16T02:20:38.443Z,50.20
2019-04-16T02:22:14.033Z,50.60
2019-04-16T02:23:50.488Z,50.60
2019-04-16T02:25:26.749Z,50.90
2019-04-16T02:27:03.147Z,51.20
2019-04-16T02:28:39.405Z,51.70
2019-04-16T02:30:16.133Z,51.80
2019-04-16T02:31:52.534Z,52.20
2019-04-16T02:33:29.049Z,52.40
2019-04-16T02:35:07.904Z,52.50
2019-04-16T02:36:44.072Z,53.00
2019-04-16T02:38:20.164Z,53.20
2019-04-16T02:39:56.340Z,53.20
2019-04-16T02:41:32.670Z,53.40
2019-04-16T02:43:08.996Z,53.30
2019-04-16T02:44:49.108Z,53.50
2019-04-16T02:46:23.402Z,53.50
2019-04-16T02:47:59.703Z,54.00
2019-04-16T02:49:36.082Z,54.10
2019-04-16T02:51:17.881Z,54.40
2019-04-16T02:52:59.340Z,54.30
2019-04-16T02:54:35.433Z,54.40
2019-04-16T02:56:31.797Z,54.90
2019-04-16T02:58:15.335Z,54.60
2019-04-16T02:59:52.513Z,54.30
2019-04-16T03:01:28.809Z,54.50
2019-04-16T03:03:18.484Z,54.40
2019-04-16T03:04:58.439Z,54.30
2019-04-16T03:06:34.506Z,54.20
2019-04-16T03:08:10.813Z,55.30
2019-04-16T03:10:00.354Z,56.20
2019-04-16T03:11:25.248Z,57.40
2019-04-16T03:13:01.865Z,58.40
2019-04-16T03:14:38.295Z,59.00
2019-04-16T03:16:17.405Z,59.50
2019-04-16T03:17:53.743Z,59.10
2019-04-16T03:19:34.596Z,59.00
2019-04-16T03:21:10.946Z,59.00
2019-04-16T03:22:47.463Z,58.50
2019-04-16T03:24:23.988Z,58.10
2019-04-16T03:26:00.136Z,58.10
2019-04-16T03:27:36.413Z,57.90
2019-04-16T03:29:13.777Z,58.00
2019-04-16T03:30:50.072Z,57.60
2019-04-16T03:32:33.182Z,57.70
2019-04-16T03:34:04.815Z,57.70
2019-04-16T03:35:41.007Z,57.40
2019-04-16T03:37:17.411Z,57.30
2019-04-16T03:38:53.674Z,57.40
2019-04-16T03:40:29.903Z,57.60
2019-04-16T03:42:07.413Z,57.60
2019-04-16T03:43:43.691Z,57.70
2019-04-16T03:45:20.114Z,57.40
2019-04-16T03:46:56.813Z,57.60
2019-04-16T03:48:33.075Z,58.20
2019-04-16T03:50:12.188Z,57.70
2019-04-16T03:51:48.282Z,58.10
2019-04-16T03:53:24.445Z,58.40
2019-04-16T03:55:00.768Z,58.30
2019-04-16T03:56:36.892Z,58.70
2019-04-16T03:58:13.133Z,58.50
2019-04-16T03:59:49.432Z,58.60
2019-04-16T04:01:25.729Z,58.30
2019-04-16T04:03:02.166Z,57.50
2019-04-16T04:04:38.459Z,56.90
2019-04-16T04:06:14.700Z,56.20
2019-04-16T04:07:50.990Z,55.20
2019-04-16T04:09:27.347Z,54.50
2019-04-16T04:11:03.155Z,53.60
2019-04-16T04:12:39.315Z,53.10
2019-04-16T04:14:15.561Z,52.20
2019-04-16T04:15:54.854Z,51.80
2019-04-16T04:17:30.317Z,51.20
2019-04-16T04:19:06.656Z,50.30
2019-04-16T04:20:43.054Z,49.60
2019-04-16T04:22:19.217Z,49.20
2019-04-16T04:23:59.714Z,48.60
2019-04-16T04:25:35.969Z,47.90
2019-04-16T04:27:14.427Z,47.40
2019-04-16T04:28:51.767Z,47.00
2019-04-16T04:30:28.928Z,46.20
2019-04-16T04:32:05.658Z,45.80
2019-04-16T04:33:43.069Z,45.10
2019-04-16T04:35:21.830Z,45.10
2019-04-16T04:36:59.879Z,44.20
2019-04-16T04:38:37.535Z,44.00
2019-04-16T04:40:16.043Z,43.60
2019-04-16T04:41:52.575Z,43.00
2019-04-16T04:43:31.952Z,42.00
2019-04-16T04:45:10.227Z,41.60
2019-04-16T04:46:47.089Z,41.00
2019-04-16T04:48:24.291Z,40.70
2019-04-16T04:50:03.305Z,40.60
2019-04-16T04:51:42.643Z,40.20
2019-04-16T04:53:19.447Z,39.90
2019-04-16T04:54:54.923Z,39.50
2019-04-16T04:56:31.153Z,39.60
2019-04-16T04:58:07.245Z,39.70
2019-04-16T04:59:43.582Z,39.60
2019-04-16T05:01:19.853Z,39.20
2019-04-16T05:02:56.049Z,39.50
2019-04-16T05:04:42.658Z,39.80
2019-04-16T05:06:26.818Z,39.50
2019-04-16T05:08:01.421Z,39.20
2019-04-16T05:09:37.680Z,39.40
2019-04-16T05:11:15.834Z,39.80
2019-04-16T05:12:53.562Z,38.90
2019-04-16T05:14:29.905Z,39.10
2019-04-16T05:16:07.106Z,39.10
2019-04-16T05:17:43.473Z,39.80
2019-04-16T05:19:19.748Z,38.90
2019-04-16T05:20:56.021Z,38.60
2019-04-16T05:22:33.215Z,39.30
2019-04-16T05:24:09.710Z,38.70
2019-04-16T05:25:46.051Z,39.00
2019-04-16T05:27:22.388Z,40.20
2019-04-16T05:29:16.066Z,39.60
2019-04-16T05:30:52.166Z,39.30
2019-04-16T05:32:32.982Z,39.20
2019-04-16T05:34:06.744Z,38.90
2019-04-16T05:35:43.105Z,38.30
2019-04-16T05:37:19.849Z,39.40
2019-04-16T05:38:57.175Z,38.50
2019-04-16T05:40:35.165Z,40.00
2019-04-16T05:42:12.359Z,41.60
2019-04-16T05:43:48.457Z,40.60
2019-04-16T05:45:25.744Z,42.20
2019-04-16T05:47:02.143Z,41.70
2019-04-16T05:48:38.344Z,41.60
2019-04-16T05:50:14.850Z,42.60
2019-04-16T05:51:51.038Z,43.70
2019-04-16T05:53:27.318Z,43.60
2019-04-16T05:55:24.245Z,43.10
2019-04-16T05:57:02.278Z,42.60
2019-04-16T05:58:38.565Z,41.50
2019-04-16T06:00:19.335Z,42.80
2019-04-16T06:02:15.070Z,43.70
2019-04-16T06:03:52.826Z,43.00
2019-04-16T06:05:28.226Z,42.80
2019-04-16T06:07:07.623Z,42.40
2019-04-16T06:08:42.634Z,43.20
2019-04-16T06:10:19.668Z,42.10
2019-04-16T06:11:56.054Z,41.40
2019-04-16T06:13:32.017Z,41.00
2019-04-16T06:15:13.839Z,41.00
2019-04-16T06:17:08.382Z,40.30
2019-04-16T06:19:01.397Z,40.30
2019-04-16T06:20:39.516Z,40.40
2019-04-16T06:22:15.472Z,40.30
2019-04-16T06:23:54.584Z,40.60
2019-04-16T06:25:35.466Z,40.20
2019-04-16T06:27:30.044Z,39.20
2019-04-16T06:29:12.103Z,40.30
2019-04-16T06:30:59.003Z,40.80
2019-04-16T06:32:45.745Z,40.70
2019-04-16T06:34:32.783Z,40.80
2019-04-16T06:36:22.969Z,42.00
2019-04-16T06:38:09.728Z,41.70
2019-04-16T06:40:00.896Z,40.30
2019-04-16T06:41:42.022Z,39.40
2019-04-16T06:43:26.165Z,38.70
2019-04-16T06:45:04.913Z,39.20
2019-04-16T06:46:49.875Z,40.60
2019-04-16T06:48:27.810Z,39.10
2019-04-16T06:50:31.140Z,38.20
2019-04-16T06:52:17.993Z,38.10
2019-04-16T06:54:12.143Z,38.00
2019-04-16T06:56:05.496Z,37.10
2019-04-16T06:58:00.979Z,36.60
2019-04-16T06:59:44.799Z,34.60
2019-04-16T07:01:41.937Z,33.80
2019-04-16T07:03:18.958Z,33.30
2019-04-16T07:05:12.883Z,34.30
2019-04-16T07:07:08.404Z,33.50
2019-04-16T07:09:03.895Z,35.70
2019-04-16T07:11:00.104Z,36.80
2019-04-16T07:12:38.620Z,33.50
2019-04-16T07:14:15.498Z,31.70
2019-04-16T07:15:53.314Z,30.90
2019-04-16T07:17:33.653Z,29.60
2019-04-16T07:19:11.214Z,30.00
2019-04-16T07:20:48.721Z,30.50
2019-04-16T07:22:25.004Z,30.20
2019-04-16T07:24:01.440Z,30.60
2019-04-16T07:25:41.447Z,30.70
2019-04-16T07:27:19.598Z,29.80
2019-04-16T07:28:58.946Z,29.40
2019-04-16T07:30:40.554Z,29.50
2019-04-16T07:32:17.226Z,29.60
2019-04-16T07:33:56.182Z,29.90
2019-04-16T07:35:50.153Z,30.10
2019-04-16T07:37:37.932Z,28.90
2019-04-16T07:39:28.864Z,28.90
2019-04-16T07:41:12.383Z,29.30
2019-04-16T07:43:06.971Z,30.70
2019-04-16T07:45:01.128Z,30.00
2019-04-16T07:46:58.181Z,30.50
2019-04-16T07:48:38.843Z,30.10
2019-04-16T07:50:25.948Z,30.40
2019-04-16T07:52:07.006Z,30.20
2019-04-16T07:53:47.177Z,29.40
2019-04-16T07:55:27.499Z,30.00
2019-04-16T07:57:03.925Z,29.10
2019-04-16T07:58:40.295Z,28.70
2019-04-16T08:00:16.767Z,28.30
2019-04-16T08:01:53.140Z,29.00
2019-04-16T08:03:29.344Z,29.40
2019-04-16T08:05:09.335Z,29.00
2019-04-16T08:06:47.298Z,28.80
2019-04-16T08:08:24.611Z,29.80
2019-04-16T08:10:03.307Z,29.10
2019-04-16T08:11:39.839Z,29.60
2019-04-16T08:13:17.966Z,29.30
2019-04-16T08:14:54.162Z,29.60
2019-04-16T08:16:30.624Z,29.00
2019-04-16T08:18:07.160Z,29.10
2019-04-16T08:19:44.804Z,28.20
2019-04-16T08:21:23.091Z,28.20
2019-04-16T08:23:26.671Z,28.30
2019-04-16T08:25:04.635Z,29.00
2019-04-16T08:26:44.500Z,29.00
2019-04-16T08:28:19.489Z,29.00
2019-04-16T08:29:55.870Z,29.00
2019-04-16T08:31:34.966Z,28.60
2019-04-16T08:33:11.699Z,29.10
2019-04-16T08:34:48.135Z,29.60
2019-04-16T08:36:24.547Z,30.60
2019-04-16T08:38:00.834Z,30.60
2019-04-16T08:39:39.825Z,29.80
2019-04-16T08:41:19.973Z,30.00
2019-04-16T08:42:56.995Z,30.00
2019-04-16T08:44:35.464Z,31.00
2019-04-16T08:46:11.033Z,30.90
2019-04-16T08:47:47.405Z,32.20
2019-04-16T08:49:23.839Z,32.20
2019-04-16T08:51:00.232Z,33.60
2019-04-16T08:52:38.566Z,33.50
2019-04-16T08:54:17.683Z,30.60
2019-04-16T08:55:52.648Z,30.20
2019-04-16T08:57:31.766Z,29.50
2019-04-16T08:59:10.045Z,29.40
2019-04-16T09:00:47.718Z,29.80
2019-04-16T09:02:26.999Z,28.90
2019-04-16T09:04:04.546Z,28.90
2019-04-16T09:05:41.535Z,28.80
2019-04-16T09:07:36.189Z,28.20
2019-04-16T09:09:25.453Z,27.40
2019-04-16T09:11:03.355Z,27.40
2019-04-16T09:12:44.905Z,27.70
2019-04-16T09:14:21.026Z,26.80
2019-04-16T09:15:56.201Z,28.00
2019-04-16T09:17:34.081Z,28.70
2019-04-16T09:19:11.989Z,29.20
2019-04-16T09:20:48.413Z,29.50
2019-04-16T09:22:24.496Z,29.20
2019-04-16T09:24:14.629Z,29.10
2019-04-16T09:25:52.625Z,29.00
2019-04-16T09:27:43.823Z,27.80
2019-04-16T09:29:40.325Z,29.30
2019-04-16T09:31:35.775Z,28.00
2019-04-16T09:33:24.490Z,28.30
2019-04-16T09:35:09.616Z,27.80
2019-04-16T09:36:53.832Z,28.10
2019-04-16T09:38:46.700Z,27.40
2019-04-16T09:40:30.668Z,26.50
2019-04-16T09:42:07.099Z,26.50
2019-04-16T09:43:45.149Z,27.70
2019-04-16T09:45:24.363Z,27.00
2019-04-16T09:47:00.454Z,26.90
2019-04-16T09:48:37.044Z,26.00
2019-04-16T09:50:13.472Z,25.70
2019-04-16T09:51:51.098Z,26.60
2019-04-16T09:53:33.925Z,25.90
2019-04-16T09:55:06.942Z,26.20
2019-04-16T09:56:43.257Z,24.90
2019-04-16T09:58:22.129Z,25.20
2019-04-16T10:00:00.224Z,24.30
2019-04-16T10:01:41.232Z,24.30
2019-04-16T10:03:36.767Z,24.90
2019-04-16T10:05:13.468Z,24.60
2019-04-16T10:06:49.830Z,24.50
2019-04-16T10:08:29.213Z,25.40
2019-04-16T10:10:06.343Z,24.90
2019-04-16T10:11:42.782Z,25.00
2019-04-16T10:13:30.091Z,24.80
2019-04-16T10:14:58.200Z,24.80
2019-04-16T10:16:34.634Z,24.90
2019-04-16T10:18:10.983Z,24.90
2019-04-16T10:19:47.144Z,24.10
2019-04-16T10:21:23.423Z,24.20
2019-04-16T10:23:00.943Z,25.30
2019-04-16T10:24:54.933Z,25.30
2019-04-16T10:26:31.326Z,25.40
2019-04-16T10:28:14.795Z,25.50
2019-04-16T10:29:51.138Z,26.70
2019-04-16T10:31:27.687Z,27.20
2019-04-16T10:33:03.918Z,25.90
2019-04-16T10:34:40.212Z,25.00
2019-04-16T10:36:16.548Z,26.00
2019-04-16T10:37:52.910Z,26.70
2019-04-16T10:39:34.037Z,26.60
2019-04-16T10:41:12.044Z,26.30
2019-04-16T10:42:50.100Z,25.40
2019-04-16T10:44:32.126Z,24.60
2019-04-16T10:46:25.484Z,25.40
2019-04-16T10:48:18.779Z,24.50
2019-04-16T10:50:12.961Z,25.40
2019-04-16T10:51:49.150Z,24.10
2019-04-16T10:53:27.059Z,23.60
2019-04-16T10:55:09.351Z,23.90
2019-04-16T10:57:03.939Z,23.80
2019-04-16T10:58:42.828Z,24.60
2019-04-16T11:00:22.711Z,24.70
2019-04-16T11:02:10.887Z,24.60
2019-04-16T11:04:01.018Z,24.20
2019-04-16T11:05:44.413Z,24.20
2019-04-16T11:07:28.607Z,24.10
2019-04-16T11:09:07.280Z,23.40
2019-04-16T11:10:43.592Z,23.80
2019-04-16T11:12:20.141Z,23.70
2019-04-16T11:14:00.126Z,23.20
2019-04-16T11:15:34.497Z,23.00
2019-04-16T11:17:10.887Z,22.50
2019-04-16T11:18:47.456Z,23.20
2019-04-16T11:20:23.837Z,23.20
2019-04-16T11:22:03.928Z,23.20
2019-04-16T11:23:38.243Z,23.00
2019-04-16T11:25:14.699Z,24.00
2019-04-16T11:26:51.122Z,23.30
2019-04-16T11:28:27.474Z,24.10
2019-04-16T11:30:06.575Z,24.50
2019-04-16T11:31:42.946Z,23.40
2019-04-16T11:33:19.450Z,23.70
2019-04-16T11:34:55.857Z,24.10
2019-04-16T11:36:32.316Z,24.50
2019-04-16T11:38:09.028Z,24.50
2019-04-16T11:39:45.508Z,24.10
2019-04-16T11:41:21.785Z,25.10
2019-04-16T11:42:58.172Z,23.80
2019-04-16T11:44:34.674Z,24.10
2019-04-16T11:46:11.478Z,24.00
2019-04-16T11:47:48.222Z,24.30
2019-04-16T11:49:24.782Z,24.50
2019-04-16T11:51:01.111Z,24.90
2019-04-16T11:52:39.911Z,23.40
2019-04-16T11:54:15.511Z,23.60
2019-04-16T11:55:51.934Z,23.90
2019-04-16T11:57:29.467Z,24.40
2019-04-16T11:59:06.626Z,25.70
2019-04-16T12:01:01.127Z,25.60
2019-04-16T12:02:43.060Z,25.10
2019-04-16T12:04:23.785Z,25.30
2019-04-16T12:06:27.748Z,25.30
2019-04-16T12:08:03.219Z,25.60
2019-04-16T12:09:52.755Z,25.80
2019-04-16T12:11:48.948Z,25.70
2019-04-16T12:13:43.124Z,25.00
2019-04-16T12:15:25.073Z,24.40
2019-04-16T12:17:20.996Z,25.00
2019-04-16T12:19:15.374Z,24.50
2019-04-16T12:21:02.212Z,24.60
2019-04-16T12:22:55.320Z,25.10
2019-04-16T12:24:34.371Z,25.10
2019-04-16T12:26:29.870Z,25.10
2019-04-16T12:28:22.847Z,25.80
2019-04-16T12:30:17.061Z,26.10
2019-04-16T12:31:57.580Z,25.60
2019-04-16T12:33:47.652Z,25.30
2019-04-16T12:35:31.069Z,25.30
2019-04-16T12:37:12.184Z,24.90
2019-04-16T12:39:06.468Z,24.90
2019-04-16T12:41:00.893Z,24.80
2019-04-16T12:42:42.235Z,24.90
2019-04-16T12:44:25.738Z,26.00
2019-04-16T12:46:12.835Z,25.00
2019-04-16T12:47:59.638Z,25.00
2019-04-16T12:49:53.703Z,25.40
2019-04-16T12:51:43.760Z,25.10
2019-04-16T12:53:21.715Z,25.30
2019-04-16T12:54:59.884Z,25.30
2019-04-16T12:56:41.370Z,25.00
2019-04-16T12:58:30.769Z,25.60
2019-04-16T13:00:13.811Z,25.40
2019-04-16T13:02:12.201Z,25.10
2019-04-16T13:04:02.471Z,25.40
2019-04-16T13:05:47.120Z,25.40
2019-04-16T13:07:40.250Z,25.10
2019-04-16T13:09:36.470Z,25.60
2019-04-16T13:11:32.027Z,26.20
2019-04-16T13:13:13.859Z,26.30
2019-04-16T13:15:08.100Z,26.50
2019-04-16T13:17:03.485Z,26.60
2019-04-16T13:19:01.753Z,26.60
2019-04-16T13:20:57.486Z,27.10
2019-04-16T13:22:35.886Z,27.20
2019-04-16T13:24:16.707Z,27.60
2019-04-16T13:26:11.861Z,28.10
2019-04-16T13:27:47.835Z,27.60
2019-04-16T13:29:28.936Z,27.10
2019-04-16T13:31:03.492Z,27.40
2019-04-16T13:32:39.872Z,27.60
2019-04-16T13:34:18.664Z,27.30
2019-04-16T13:35:54.264Z,26.90
2019-04-16T13:37:36.989Z,26.50
2019-04-16T13:39:12.625Z,26.60
2019-04-16T13:40:50.200Z,26.80
2019-04-16T13:42:27.188Z,27.00
2019-04-16T13:44:17.545Z,26.80
2019-04-16T13:45:57.926Z,26.80
2019-04-16T13:47:34.839Z,26.30
2019-04-16T13:49:15.461Z,26.30
2019-04-16T13:50:53.538Z,25.80
2019-04-16T13:52:29.966Z,25.80
2019-04-16T13:54:27.728Z,25.60
2019-04-16T13:56:18.701Z,26.00
2019-04-16T13:58:00.264Z,26.10
2019-04-16T13:59:56.764Z,25.80
2019-04-16T14:01:49.767Z,26.70
2019-04-16T14:03:26.108Z,26.00
2019-04-16T14:05:05.005Z,26.50
2019-04-16T14:06:40.706Z,26.30
2019-04-16T14:08:17.052Z,26.40
2019-04-16T14:09:53.389Z,26.10
2019-04-16T14:11:29.834Z,26.30
2019-04-16T14:13:06.431Z,26.10
2019-04-16T14:14:42.746Z,26.40
2019-04-16T14:16:19.058Z,26.10
2019-04-16T14:17:59.168Z,26.50
2019-04-16T14:19:34.710Z,26.60
2019-04-16T14:21:11.564Z,26.60
2019-04-16T14:22:47.936Z,26.60
2019-04-16T14:24:24.226Z,26.80
2019-04-16T14:26:01.689Z,26.70
2019-04-16T14:27:38.003Z,26.60
2019-04-16T14:29:14.267Z,26.60
2019-04-16T14:30:50.670Z,27.40
2019-04-16T14:32:27.277Z,27.30
2019-04-16T14:34:11.323Z,28.20
2019-04-16T14:35:47.833Z,27.60
2019-04-16T14:37:25.323Z,27.50
2019-04-16T14:39:13.731Z,27.60
2019-04-16T14:40:51.030Z,28.20
2019-04-16T14:42:27.371Z,28.40
2019-04-16T14:44:05.956Z,29.00
2019-04-16T14:45:57.558Z,28.60
2019-04-16T14:47:22.034Z,28.30
2019-04-16T14:48:58.202Z,28.50
2019-04-16T14:50:34.917Z,28.70
2019-04-16T14:52:11.188Z,29.20
2019-04-16T14:53:51.320Z,30.10
2019-04-16T14:55:32.878Z,29.90
2019-04-16T14:57:11.204Z,29.10
2019-04-16T14:59:05.617Z,29.70
2019-04-16T15:01:00.411Z,29.20
2019-04-16T15:02:41.297Z,29.70
2019-04-16T15:04:19.229Z,29.80
2019-04-16T15:06:03.415Z,30.40
2019-04-16T15:07:50.684Z,30.50
2019-04-16T15:11:37.411Z,30.40
2019-04-16T15:13:16.436Z,30.70
2019-04-16T15:14:52.474Z,30.70
2019-04-16T15:16:30.847Z,30.60
2019-04-16T15:18:09.094Z,30.60
2019-04-16T15:19:49.814Z,31.30
2019-04-16T15:21:28.483Z,30.40
2019-04-16T15:23:15.366Z,31.00
2019-04-16T15:24:59.321Z,31.60
2019-04-16T15:26:46.302Z,32.50
2019-04-16T15:28:26.895Z,32.30
2019-04-16T15:30:12.002Z,33.00
2019-04-16T15:32:04.346Z,33.60
2019-04-16T15:33:39.866Z,34.00
2019-04-16T15:35:20.509Z,34.30
2019-04-16T15:37:14.874Z,34.00
2019-04-16T15:38:58.793Z,33.70
2019-04-16T15:40:40.352Z,33.70
2019-04-16T15:42:18.548Z,34.30
2019-04-16T15:44:05.723Z,34.50
2019-04-16T15:45:58.890Z,34.70
2019-04-16T15:47:46.917Z,35.00
2019-04-16T15:49:24.691Z,35.00
2019-04-16T15:51:02.427Z,35.70
2019-04-16T15:52:46.324Z,35.80
2019-04-16T15:54:39.897Z,36.40
2019-04-16T15:56:17.941Z,36.60
2019-04-16T15:58:19.496Z,36.90
2019-04-16T16:00:00.009Z,37.70
2019-04-16T16:01:54.075Z,37.90
2019-04-16T16:03:36.103Z,38.50
2019-04-16T16:05:20.326Z,39.40
2019-04-16T16:06:58.225Z,39.70
2019-04-16T16:08:48.425Z,40.60
2019-04-16T16:10:26.331Z,41.30
2019-04-16T16:12:10.046Z,41.80
2019-04-16T16:13:45.303Z,42.60
2019-04-16T16:15:21.478Z,43.40
2019-04-16T16:16:57.754Z,44.30
2019-04-16T16:18:35.706Z,45.10
2019-04-16T16:20:12.947Z,46.00
2019-04-16T16:21:49.118Z,46.70
2019-04-16T16:23:25.314Z,47.90
2019-04-16T16:25:05.361Z,49.90
2019-04-16T16:26:39.696Z,51.30
2019-04-16T16:28:15.955Z,53.30
2019-04-16T16:29:52.440Z,55.70
2019-04-16T16:31:32.271Z,58.90
2019-04-16T16:33:06.843Z,63.80
2019-04-16T16:34:43.266Z,66.90
2019-04-16T16:36:19.688Z,69.90
2019-04-16T16:37:56.070Z,71.90
2019-04-16T16:39:32.488Z,74.20
2019-04-16T16:41:08.565Z,76.00
2019-04-16T16:42:44.818Z,77.30
2019-04-16T16:44:21.078Z,79.90
2019-04-16T16:46:08.020Z,80.90
2019-04-16T16:47:45.023Z,82.60
2019-04-16T16:49:21.428Z,85.20
2019-04-16T16:50:57.829Z,85.80
2019-04-16T16:52:39.918Z,86.70
2019-04-16T16:54:24.131Z,87.70
2019-04-16T16:56:03.075Z,88.20
2019-04-16T16:57:44.404Z,88.90
2019-04-16T16:59:39.638Z,90.10
2019-04-16T17:01:34.696Z,90.20
2019-04-16T17:03:16.582Z,90.80
2019-04-16T17:04:54.802Z,91.20
2019-04-16T17:06:31.381Z,91.70
2019-04-16T17:08:07.754Z,91.80
2019-04-16T17:09:43.948Z,92.20
2019-04-16T17:11:20.377Z,92.80
2019-04-16T17:12:56.634Z,93.30
2019-04-16T17:14:37.773Z,93.40
2019-04-16T17:16:14.499Z,93.80
2019-04-16T17:17:51.414Z,94.20
2019-04-16T17:19:27.682Z,94.30
2019-04-16T17:21:04.014Z,94.90
2019-04-16T17:22:40.965Z,95.20
2019-04-16T17:24:17.368Z,95.60
2019-04-16T17:25:57.232Z,95.70
2019-04-16T17:27:31.628Z,96.30
2019-04-16T17:29:08.062Z,96.40
2019-04-16T17:30:44.463Z,96.70
2019-04-16T17:32:20.962Z,97.00
2019-04-16T17:33:57.359Z,97.40
2019-04-16T17:35:33.818Z,97.50
2019-04-16T17:37:10.079Z,97.70
2019-04-16T17:38:46.612Z,97.60
2019-04-16T17:40:28.442Z,97.70
2019-04-16T17:42:05.755Z,97.80
2019-04-16T17:43:42.032Z,98.00
2019-04-16T17:45:26.946Z,98.20
2019-04-16T17:47:30.884Z,98.10
2019-04-16T17:49:01.904Z,98.20
2019-04-16T17:50:42.836Z,98.30
2019-04-16T17:52:37.626Z,98.40
2019-04-16T17:54:31.361Z,98.60
2019-04-16T17:56:25.132Z,98.80
2019-04-16T17:58:02.964Z,99.00
2019-04-16T17:59:41.203Z,99.00
2019-04-16T18:01:35.811Z,99.00
2019-04-16T18:03:30.233Z,99.00
2019-04-16T18:05:12.748Z,99.20
2019-04-16T18:06:48.906Z,99.40
2019-04-16T18:08:26.944Z,99.30
2019-04-16T18:10:06.073Z,99.50
2019-04-16T18:13:56.430Z,99.50
2019-04-16T18:15:50.797Z,99.60
2019-04-16T18:17:28.911Z,99.60
2019-04-16T18:19:06.915Z,99.40
2019-04-16T18:20:57.147Z,99.60
2019-04-16T18:22:27.621Z,99.90
2019-04-16T18:24:05.782Z,99.80
2019-04-16T18:25:55.152Z,99.70
2019-04-16T18:27:33.447Z,99.90
2019-04-16T18:29:32.676Z,99.90
2019-04-16T18:31:16.616Z,99.90
2019-04-16T18:33:05.681Z,99.90
2019-04-16T18:34:45.980Z,99.90
2019-04-16T18:36:24.041Z,99.90
2019-04-16T18:38:01.548Z,99.90
2019-04-16T18:39:45.724Z,99.90
2019-04-16T18:41:30.662Z,99.90
2019-04-16T18:43:24.414Z,99.90
2019-04-16T18:45:08.081Z,99.90
2019-04-16T18:47:04.988Z,99.90
2019-04-16T18:48:58.290Z,99.90
2019-04-16T18:50:34.651Z,99.90
2019-04-16T18:52:10.923Z,99.90
2019-04-16T18:53:47.293Z,99.90
2019-04-16T18:55:24.733Z,99.90
2019-04-16T18:57:01.163Z,99.90
2019-04-16T18:58:37.503Z,99.90
2019-04-16T19:00:15.668Z,99.90
2019-04-16T19:01:53.162Z,99.90
2019-04-16T19:03:29.580Z,99.90
2019-04-16T19:05:06.751Z,99.90
2019-04-16T19:06:43.156Z,99.90
2019-04-16T19:08:19.615Z,99.90
2019-04-16T19:09:56.488Z,99.90
2019-04-16T19:11:32.873Z,99.90
2019-04-16T19:13:11.563Z,99.90
2019-04-16T19:14:47.331Z,99.90
2019-04-16T19:16:23.799Z,99.90
2019-04-16T19:18:00.570Z,99.90
2019-04-16T19:19:36.920Z,99.90
2019-04-16T19:21:13.354Z,99.90
2019-04-16T19:22:50.700Z,99.90
2019-04-16T19:24:27.196Z,99.90
2019-04-16T19:26:03.626Z,99.90
2019-04-16T19:27:39.920Z,99.90
2019-04-16T19:29:15.792Z,99.90
2019-04-16T19:30:52.688Z,99.90
2019-04-16T19:32:29.313Z,99.90
2019-04-16T19:34:10.192Z,99.90
2019-04-16T19:35:44.158Z,99.90
2019-04-16T19:37:20.419Z,99.90
2019-04-16T19:38:56.933Z,99.90
2019-04-16T19:40:33.276Z,99.90
2019-04-16T19:42:11.439Z,99.90
2019-04-16T19:43:47.738Z,99.90
2019-04-16T19:45:24.119Z,99.90
2019-04-16T19:47:02.442Z,99.90
2019-04-16T19:48:42.210Z,99.90
2019-04-16T19:50:18.579Z,99.90
2019-04-16T19:51:54.993Z,99.90
2019-04-16T19:53:31.334Z,99.90
2019-04-16T19:55:12.037Z,99.90
2019-04-16T19:56:51.129Z,99.90
2019-04-16T19:58:25.385Z,99.90
2019-04-16T20:00:01.819Z,99.90
2019-04-16T20:01:38.319Z,99.90
2019-04-16T20:03:14.798Z,99.90
2019-04-16T20:04:51.145Z,99.90
2019-04-16T20:06:28.102Z,99.90
2019-04-16T20:08:04.611Z,99.90
2019-04-16T20:09:41.087Z,99.90
2019-04-16T20:11:20.373Z,99.90
2019-04-16T20:12:57.452Z,99.90
2019-04-16T20:14:36.217Z,99.90
2019-04-16T20:16:11.845Z,99.90
2019-04-16T20:17:48.174Z,99.90
2019-04-16T20:19:24.414Z,99.90
2019-04-16T20:21:01.763Z,99.90
2019-04-16T20:22:38.704Z,99.90
2019-04-16T20:24:15.229Z,99.90
2019-04-16T20:25:51.039Z,99.90
2019-04-16T20:27:28.210Z,99.90
2019-04-16T20:29:04.168Z,99.90
2019-04-16T20:30:40.476Z,99.90
2019-04-16T20:32:16.737Z,99.90
2019-04-16T20:33:53.393Z,99.90
2019-04-16T20:35:29.714Z,99.90
2019-04-16T20:37:06.305Z,99.90
2019-04-16T20:38:43.425Z,99.90
2019-04-16T20:40:19.830Z,99.90
2019-04-16T20:41:59.230Z,99.90
2019-04-16T20:43:34.014Z,99.90
2019-04-16T20:45:11.114Z,99.90
2019-04-16T20:46:47.310Z,99.90
2019-04-16T20:48:23.617Z,99.90
2019-04-16T20:50:03.483Z,99.90
2019-04-16T20:51:38.019Z,99.90
2019-04-16T20:53:14.257Z,99.90
2019-04-16T20:54:54.530Z,99.90
2019-04-16T20:56:30.923Z,99.90
2019-04-16T20:58:10.158Z,99.90
2019-04-16T20:59:46.620Z,99.90
2019-04-16T21:01:33.738Z,99.90
2019-04-16T21:03:03.147Z,99.90
2019-04-16T21:04:39.297Z,99.90
2019-04-16T21:06:15.587Z,99.90
2019-04-16T21:07:52.053Z,99.90
2019-04-16T21:09:30.020Z,99.90
2019-04-16T21:11:08.812Z,99.90
2019-04-16T21:12:45.371Z,99.90
2019-04-16T21:14:22.761Z,99.90
2019-04-16T21:16:01.336Z,99.90
2019-04-16T21:17:39.109Z,99.90
2019-04-16T21:19:23.002Z,99.90
2019-04-16T21:20:53.295Z,99.90
2019-04-16T21:22:29.829Z,99.90
2019-04-16T21:24:08.174Z,99.90
2019-04-16T21:25:45.977Z,99.90
2019-04-16T21:27:22.518Z,99.90
2019-04-16T21:29:02.015Z,99.90
2019-04-16T21:30:42.896Z,99.90
2019-04-16T21:32:22.633Z,99.90
2019-04-16T21:34:00.866Z,99.90